createdAt,value
2022-08-26T00:01:29.800Z,6.53
2022-08-26T00:03:58.745Z,6.57
2022-08-26T00:06:28.382Z,6.95
2022-08-26T00:08:56.678Z,6.53
2022-08-26T00:11:27.002Z,6.70
2022-08-26T00:13:55.262Z,6.70
2022-08-26T00:16:25.789Z,5.65
2022-08-26T00:18:54.213Z,6.90
2022-08-26T00:21:22.442Z,6.60
2022-08-26T00:23:52.866Z,6.80
2022-08-26T00:26:21.084Z,7.07
2022-08-26T00:28:49.627Z,6.70
2022-08-26T00:31:18.185Z,6.88
2022-08-26T00:33:46.339Z,6.32
2022-08-26T00:36:20.301Z,6.10
2022-08-26T00:38:49.115Z,6.68
2022-08-26T00:41:19.878Z,6.47
2022-08-26T00:43:48.129Z,6.10
2022-08-26T00:46:20.696Z,6.47
2022-08-26T00:48:51.125Z,6.53
2022-08-26T00:51:23.072Z,6.85
2022-08-26T00:53:56.239Z,6.35
2022-08-26T00:56:29.344Z,6.13
2022-08-26T00:58:59.942Z,7.13
2022-08-26T01:01:28.429Z,7.38
2022-08-26T01:04:00.354Z,7.60
2022-08-26T01:06:28.818Z,7.10
2022-08-26T01:08:57.158Z,6.78
2022-08-26T01:11:27.644Z,6.68
2022-08-26T01:13:58.334Z,6.50
2022-08-26T01:16:26.628Z,6.65
2022-08-26T01:18:59.774Z,6.60
2022-08-26T01:21:32.208Z,7.22
2022-08-26T01:24:01.831Z,6.63
2022-08-26T01:26:34.198Z,7.30
2022-08-26T01:29:06.279Z,6.60
2022-08-26T01:31:41.767Z,6.70
2022-08-26T01:34:16.240Z,6.95
2022-08-26T01:36:50.638Z,6.55
2022-08-26T01:39:21.186Z,6.13
2022-08-26T01:41:53.705Z,6.70
2022-08-26T01:44:26.325Z,6.68
2022-08-26T01:46:55.804Z,7.03
2022-08-26T01:49:26.058Z,6.93
2022-08-26T01:51:56.292Z,7.95
2022-08-26T01:54:27.566Z,6.38
2022-08-26T01:56:55.925Z,7.32
2022-08-26T01:59:26.274Z,6.63
2022-08-26T02:01:54.813Z,6.60
2022-08-26T02:04:25.560Z,6.80
2022-08-26T02:06:56.260Z,6.68
2022-08-26T02:09:25.741Z,7.40
2022-08-26T02:11:56.637Z,7.25
2022-08-26T02:14:29.184Z,6.40
2022-08-26T02:16:58.333Z,6.82
2022-08-26T02:19:29.908Z,6.53
2022-08-26T02:22:00.514Z,6.85
2022-08-26T02:24:46.233Z,6.53
2022-08-26T02:27:16.424Z,6.75
2022-08-26T02:29:49.355Z,6.80
2022-08-26T02:32:18.722Z,6.90
2022-08-26T02:34:47.765Z,6.30
2022-08-26T02:37:15.827Z,6.57
2022-08-26T02:39:45.908Z,7.03
2022-08-26T02:42:17.521Z,6.72
2022-08-26T02:44:45.550Z,6.53
2022-08-26T02:47:15.116Z,6.38
2022-08-26T02:49:44.424Z,7.22
2022-08-26T02:52:15.501Z,7.50
2022-08-26T02:54:43.607Z,7.63
2022-08-26T02:57:13.557Z,7.15
2022-08-26T02:59:43.004Z,7.03
2022-08-26T03:02:12.651Z,7.80
2022-08-26T03:04:58.033Z,7.47
2022-08-26T03:07:30.498Z,7.70
2022-08-26T03:09:59.064Z,7.38
2022-08-26T03:12:27.615Z,7.88
2022-08-26T03:14:57.705Z,7.75
2022-08-26T03:17:26.924Z,7.38
2022-08-26T03:19:57.185Z,7.95
2022-08-26T03:22:26.045Z,8.40
2022-08-26T03:24:55.562Z,7.55
2022-08-26T03:27:23.625Z,7.30
2022-08-26T03:30:11.841Z,7.05
2022-08-26T03:32:41.725Z,6.82
2022-08-26T03:35:10.272Z,6.97
2022-08-26T03:37:38.905Z,7.10
2022-08-26T03:40:10.499Z,6.40
2022-08-26T03:42:39.380Z,7.40
2022-08-26T03:45:10.796Z,7.30
2022-08-26T03:47:39.838Z,7.13
2022-08-26T03:50:11.749Z,7.22
2022-08-26T03:52:43.838Z,7.07
2022-08-26T03:55:12.579Z,7.35
2022-08-26T03:57:40.692Z,7.25
2022-08-26T04:00:15.128Z,7.35
2022-08-26T04:02:48.836Z,6.90
2022-08-26T04:05:20.537Z,7.80
2022-08-26T04:07:49.189Z,7.55
2022-08-26T04:10:22.151Z,7.32
2022-08-26T04:12:58.788Z,7.50
2022-08-26T04:15:28.351Z,7.53
2022-08-26T04:17:57.535Z,7.75
2022-08-26T04:20:27.386Z,8.35
2022-08-26T04:22:56.291Z,8.65
2022-08-26T04:25:25.157Z,8.10
2022-08-26T04:27:53.275Z,9.73
2022-08-26T04:30:21.900Z,8.48
2022-08-26T04:32:50.331Z,7.50
2022-08-26T04:35:22.800Z,7.80
2022-08-26T04:37:56.124Z,8.30
2022-08-26T04:40:26.659Z,8.50
2022-08-26T04:42:54.985Z,8.18
2022-08-26T04:45:23.384Z,8.10
2022-08-26T04:47:56.300Z,7.90
2022-08-26T04:50:26.543Z,7.90
2022-08-26T04:52:56.498Z,7.47
2022-08-26T04:55:38.201Z,8.13
2022-08-26T04:58:10.301Z,7.32
2022-08-26T05:00:39.197Z,7.90
2022-08-26T05:03:10.367Z,7.32
2022-08-26T05:05:43.274Z,7.32
2022-08-26T05:08:14.163Z,7.88
2022-08-26T05:10:42.674Z,7.60
2022-08-26T05:13:14.301Z,7.80
2022-08-26T05:15:44.585Z,7.07
2022-08-26T05:18:14.192Z,7.90
2022-08-26T05:20:43.463Z,7.10
2022-08-26T05:23:14.672Z,7.28
2022-08-26T05:25:45.481Z,7.43
2022-08-26T05:28:15.349Z,7.75
2022-08-26T05:30:44.467Z,8.13
2022-08-26T05:33:13.216Z,7.95
2022-08-26T05:35:42.185Z,7.35
2022-08-26T05:38:12.933Z,7.13
2022-08-26T05:40:45.174Z,6.63
2022-08-26T05:43:14.544Z,6.93
2022-08-26T05:45:46.237Z,7.20
2022-08-26T05:48:16.087Z,8.10
2022-08-26T05:50:46.895Z,7.18
2022-08-26T05:53:17.515Z,7.53
2022-08-26T05:55:50.253Z,7.95
2022-08-26T05:58:20.223Z,6.47
2022-08-26T06:00:56.991Z,7.70
2022-08-26T06:03:25.233Z,7.43
2022-08-26T06:05:53.427Z,7.47
2022-08-26T06:08:21.634Z,7.47
2022-08-26T06:10:52.682Z,7.70
2022-08-26T06:13:22.510Z,7.25
2022-08-26T06:15:51.756Z,7.80
2022-08-26T06:18:23.000Z,7.07
2022-08-26T06:20:57.725Z,7.10
2022-08-26T06:23:45.237Z,6.93
2022-08-26T06:26:17.930Z,7.03
2022-08-26T06:28:45.970Z,7.22
2022-08-26T06:31:15.401Z,6.75
2022-08-26T06:33:44.405Z,7.57
2022-08-26T06:36:17.287Z,7.40
2022-08-26T06:38:47.736Z,7.25
2022-08-26T06:41:18.048Z,7.63
2022-08-26T06:43:46.150Z,7.38
2022-08-26T06:46:17.826Z,7.50
2022-08-26T06:48:49.131Z,6.78
2022-08-26T06:51:22.334Z,7.15
2022-08-26T06:53:53.710Z,7.72
2022-08-26T06:56:25.589Z,7.53
2022-08-26T06:58:54.627Z,6.82
2022-08-26T07:01:27.319Z,7.25
2022-08-26T07:03:58.157Z,6.75
2022-08-26T07:06:28.183Z,7.47
2022-08-26T07:09:03.756Z,6.68
2022-08-26T07:11:35.446Z,7.10
2022-08-26T07:14:04.484Z,6.35
2022-08-26T07:16:32.563Z,7.13
2022-08-26T07:19:03.317Z,8.05
2022-08-26T07:21:31.767Z,6.70
2022-08-26T07:24:00.655Z,7.50
2022-08-26T07:26:31.585Z,6.68
2022-08-26T07:29:02.229Z,7.07
2022-08-26T07:31:39.223Z,6.55
2022-08-26T07:34:10.938Z,7.15
2022-08-26T07:36:39.028Z,6.90
2022-08-26T07:39:08.002Z,6.70
2022-08-26T07:41:36.610Z,6.55
2022-08-26T07:44:06.458Z,7.13
2022-08-26T07:46:36.803Z,7.40
2022-08-26T07:49:05.021Z,6.70
2022-08-26T07:51:33.563Z,6.72
2022-08-26T07:54:02.507Z,6.78
2022-08-26T07:56:30.605Z,7.10
2022-08-26T07:58:59.729Z,5.82
2022-08-26T08:01:31.530Z,6.07
2022-08-26T08:04:01.278Z,6.40
2022-08-26T08:06:30.461Z,6.90
2022-08-26T08:09:00.555Z,7.07
2022-08-26T08:11:31.047Z,6.75
2022-08-26T08:14:01.740Z,7.43
2022-08-26T08:16:32.370Z,6.70
2022-08-26T08:19:02.637Z,6.75
2022-08-26T08:21:31.881Z,6.93
2022-08-26T08:24:00.605Z,6.55
2022-08-26T08:26:28.671Z,6.68
2022-08-26T08:28:58.413Z,7.00
2022-08-26T08:34:21.480Z,6.43
2022-08-26T08:36:50.415Z,6.30
2022-08-26T08:39:22.002Z,6.55
2022-08-26T08:42:04.230Z,7.15
2022-08-26T08:44:32.720Z,6.47
2022-08-26T08:47:06.122Z,6.43
2022-08-26T08:49:35.574Z,6.93
2022-08-26T08:52:12.231Z,6.63
2022-08-26T08:54:40.386Z,6.57
2022-08-26T08:57:14.268Z,7.00
2022-08-26T08:59:53.280Z,6.93
2022-08-26T09:02:29.808Z,7.28
2022-08-26T09:05:15.509Z,6.38
2022-08-26T09:07:49.203Z,6.63
2022-08-26T09:10:30.170Z,6.32
2022-08-26T09:12:58.817Z,7.10
2022-08-26T09:15:33.710Z,6.47
2022-08-26T09:18:10.460Z,6.18
2022-08-26T09:20:50.561Z,6.25
2022-08-26T09:23:19.176Z,6.50
2022-08-26T09:25:49.896Z,6.13
2022-08-26T09:28:19.674Z,6.82
2022-08-26T09:30:58.895Z,6.40
2022-08-26T09:33:32.060Z,6.03
2022-08-26T09:36:26.226Z,5.63
2022-08-26T09:38:55.312Z,6.00
2022-08-26T09:41:31.751Z,6.93
2022-08-26T09:44:18.334Z,6.43
2022-08-26T09:46:55.038Z,5.38
2022-08-26T09:49:36.088Z,5.95
2022-08-26T09:52:12.483Z,5.72
2022-08-26T09:54:41.275Z,5.65
2022-08-26T09:57:18.922Z,5.40
2022-08-26T09:59:47.818Z,5.07
2022-08-26T10:02:35.827Z,5.15
2022-08-26T10:05:09.311Z,4.72
2022-08-26T10:07:42.916Z,5.05
2022-08-26T10:10:18.489Z,4.72
2022-08-26T10:13:03.191Z,5.05
2022-08-26T10:15:39.309Z,5.80
2022-08-26T10:18:14.187Z,5.43
2022-08-26T10:20:52.344Z,5.30
2022-08-26T10:23:25.613Z,5.20
2022-08-26T10:25:59.153Z,5.03
2022-08-26T10:28:36.466Z,5.47
2022-08-26T10:31:09.895Z,5.00
2022-08-26T10:33:40.074Z,5.03
2022-08-26T10:36:46.929Z,5.10
2022-08-26T10:39:30.000Z,4.95
2022-08-26T10:42:02.030Z,4.95
2022-08-26T10:44:36.338Z,5.18
2022-08-26T10:47:13.400Z,4.63
2022-08-26T10:49:42.702Z,5.10
2022-08-26T10:52:17.951Z,5.10
2022-08-26T10:54:51.616Z,5.00
2022-08-26T10:57:26.233Z,4.95
2022-08-26T11:00:27.575Z,5.35
2022-08-26T11:03:01.000Z,5.07
2022-08-26T11:05:29.389Z,4.75
2022-08-26T11:08:28.039Z,5.00
2022-08-26T11:10:59.871Z,5.05
2022-08-26T11:14:02.987Z,4.50
2022-08-26T11:16:37.262Z,4.60
2022-08-26T11:19:12.857Z,4.50
2022-08-26T11:21:52.255Z,5.07
2022-08-26T11:25:03.012Z,4.63
2022-08-26T11:27:56.956Z,4.95
2022-08-26T11:30:43.572Z,4.35
2022-08-26T11:33:12.730Z,4.50
2022-08-26T11:35:50.066Z,4.38
2022-08-26T11:38:26.236Z,4.80
2022-08-26T11:41:17.666Z,4.78
2022-08-26T11:43:49.425Z,4.55
2022-08-26T11:46:25.526Z,4.70
2022-08-26T11:49:02.142Z,4.75
2022-08-26T11:51:31.856Z,5.15
2022-08-26T11:54:14.576Z,5.78
2022-08-26T11:56:46.255Z,5.47
2022-08-26T11:59:20.832Z,4.80
2022-08-26T12:01:51.466Z,5.13
2022-08-26T12:04:28.684Z,5.18
2022-08-26T12:06:58.176Z,5.28
2022-08-26T12:09:28.550Z,4.60
2022-08-26T12:12:12.224Z,4.70
2022-08-26T12:14:42.129Z,5.20
2022-08-26T12:17:12.812Z,5.05
2022-08-26T12:19:40.925Z,5.10
2022-08-26T12:22:20.871Z,4.93
2022-08-26T12:24:53.287Z,4.45
2022-08-26T12:27:24.395Z,4.78
2022-08-26T12:30:06.796Z,4.45
2022-08-26T12:32:51.040Z,5.32
2022-08-26T12:35:28.814Z,5.20
2022-08-26T12:37:57.973Z,4.55
2022-08-26T12:40:29.931Z,3.80
2022-08-26T12:43:00.463Z,4.57
2022-08-26T12:45:32.677Z,4.10
2022-08-26T12:48:03.629Z,4.40
2022-08-26T12:50:35.005Z,4.22
2022-08-26T12:53:05.755Z,4.15
2022-08-26T12:55:40.612Z,4.15
2022-08-26T12:58:14.568Z,4.28
2022-08-26T13:00:45.941Z,4.07
2022-08-26T13:03:43.488Z,3.83
2022-08-26T13:06:29.782Z,4.40
2022-08-26T13:08:59.851Z,3.83
2022-08-26T13:11:30.145Z,4.30
2022-08-26T13:14:00.438Z,4.22
2022-08-26T13:16:31.650Z,4.05
2022-08-26T13:19:03.124Z,4.50
2022-08-26T13:21:37.454Z,4.63
2022-08-26T13:24:09.096Z,4.07
2022-08-26T13:26:37.246Z,4.18
2022-08-26T13:29:10.167Z,3.97
2022-08-26T13:31:41.736Z,3.95
2022-08-26T13:34:11.806Z,4.00
2022-08-26T13:36:40.334Z,3.70
2022-08-26T13:39:08.957Z,4.45
2022-08-26T13:41:37.260Z,4.20
2022-08-26T13:44:06.431Z,4.10
2022-08-26T13:46:34.640Z,4.35
2022-08-26T13:49:04.359Z,4.32
2022-08-26T13:51:32.916Z,3.40
2022-08-26T13:54:01.726Z,3.70
2022-08-26T13:56:30.840Z,3.40
2022-08-26T13:59:00.154Z,3.50
2022-08-26T14:01:30.223Z,3.85
2022-08-26T14:03:58.733Z,4.05
2022-08-26T14:06:28.279Z,4.38
2022-08-26T14:08:56.360Z,4.30
2022-08-26T14:11:25.050Z,4.00
2022-08-26T14:13:53.583Z,4.15
2022-08-26T14:16:25.944Z,3.65
2022-08-26T14:18:54.654Z,4.10
2022-08-26T14:21:23.069Z,4.65
2022-08-26T14:23:54.504Z,4.10
2022-08-26T14:26:29.405Z,4.10
2022-08-26T14:28:58.906Z,4.30
2022-08-26T14:31:29.242Z,4.03
2022-08-26T14:33:59.445Z,4.13
2022-08-26T14:36:32.147Z,4.68
2022-08-26T14:39:04.390Z,4.25
2022-08-26T14:41:34.404Z,3.90
2022-08-26T14:44:05.924Z,4.47
2022-08-26T14:46:40.534Z,4.60
2022-08-26T14:49:11.321Z,4.93
2022-08-26T14:51:39.895Z,4.82
2022-08-26T14:54:12.844Z,4.57
2022-08-26T14:56:54.428Z,5.25
2022-08-26T14:59:25.230Z,4.63
2022-08-26T15:01:54.803Z,5.22
2022-08-26T15:04:23.809Z,4.72
2022-08-26T15:06:53.236Z,5.07
2022-08-26T15:09:24.135Z,5.13
2022-08-26T15:11:53.182Z,4.70
2022-08-26T15:14:22.458Z,4.80
2022-08-26T15:16:51.503Z,4.90
2022-08-26T15:19:21.077Z,4.50
2022-08-26T15:21:49.622Z,5.40
2022-08-26T15:24:22.053Z,5.43
2022-08-26T15:26:52.186Z,4.75
2022-08-26T15:29:20.622Z,5.15
2022-08-26T15:31:49.228Z,4.72
2022-08-26T15:34:17.826Z,5.30
2022-08-26T15:36:48.028Z,5.30
2022-08-26T15:39:18.319Z,5.25
2022-08-26T15:41:46.817Z,5.00
2022-08-26T15:44:17.715Z,5.38
2022-08-26T15:46:45.933Z,5.13
2022-08-26T15:49:18.405Z,5.00
2022-08-26T15:51:49.192Z,6.03
2022-08-26T15:54:19.657Z,4.88
2022-08-26T15:56:50.662Z,5.57
2022-08-26T15:59:24.675Z,4.97
2022-08-26T16:01:53.791Z,5.22
2022-08-26T16:04:22.378Z,5.70
2022-08-26T16:06:52.244Z,5.30
2022-08-26T16:09:21.342Z,5.82
2022-08-26T16:11:50.428Z,5.88
2022-08-26T16:14:19.984Z,5.65
2022-08-26T16:16:48.264Z,5.82
2022-08-26T16:19:16.628Z,5.80
2022-08-26T16:21:45.344Z,5.50
2022-08-26T16:24:13.724Z,6.20
2022-08-26T16:26:44.003Z,5.68
2022-08-26T16:29:14.276Z,5.53
2022-08-26T16:31:44.096Z,5.65
2022-08-26T16:34:12.689Z,5.85
2022-08-26T16:36:41.296Z,5.47
2022-08-26T16:39:10.261Z,5.95
2022-08-26T16:41:38.611Z,5.80
2022-08-26T16:44:08.002Z,6.00
2022-08-26T16:46:36.516Z,5.88
2022-08-26T16:49:06.106Z,6.18
2022-08-26T16:51:37.815Z,5.70
2022-08-26T16:54:07.957Z,5.97
2022-08-26T16:56:37.984Z,6.20
2022-08-26T16:59:08.187Z,5.70
2022-08-26T17:01:36.600Z,6.30
2022-08-26T17:04:06.450Z,5.80
2022-08-26T17:06:34.841Z,5.70
2022-08-26T17:09:03.078Z,6.10
2022-08-26T17:11:31.509Z,6.65
2022-08-26T17:13:59.655Z,6.22
2022-08-26T17:16:28.270Z,6.57
2022-08-26T17:18:57.143Z,6.32
2022-08-26T17:21:27.944Z,7.10
2022-08-26T17:23:56.398Z,7.13
2022-08-26T17:26:24.520Z,7.00
2022-08-26T17:28:52.621Z,6.32
2022-08-26T17:31:21.877Z,6.95
2022-08-26T17:33:53.936Z,7.20
2022-08-26T17:36:23.024Z,6.95
2022-08-26T17:38:57.908Z,7.28
2022-08-26T17:41:27.093Z,7.03
2022-08-26T17:43:55.157Z,7.32
2022-08-26T17:46:23.401Z,7.47
2022-08-26T17:48:51.489Z,7.45
2022-08-26T17:51:20.313Z,7.65
2022-08-26T17:53:48.977Z,7.13
2022-08-26T17:56:21.118Z,7.57
2022-08-26T17:58:51.896Z,6.93
2022-08-26T18:01:21.049Z,7.43
2022-08-26T18:03:49.500Z,7.80
2022-08-26T18:06:17.641Z,7.20
2022-08-26T18:08:46.096Z,7.18
2022-08-26T18:11:16.418Z,7.78
2022-08-26T18:13:47.263Z,7.57
2022-08-26T18:16:17.208Z,7.72
2022-08-26T18:18:45.546Z,8.55
2022-08-26T18:21:15.597Z,8.95
2022-08-26T18:23:43.851Z,8.43
2022-08-26T18:26:17.849Z,8.40
2022-08-26T18:28:47.342Z,7.97
2022-08-26T18:31:16.329Z,7.72
2022-08-26T18:33:44.840Z,8.00
2022-08-26T18:36:20.091Z,8.13
2022-08-26T18:38:50.378Z,8.45
2022-08-26T18:41:20.630Z,8.15
2022-08-26T18:43:51.320Z,8.57
2022-08-26T18:46:21.043Z,8.35
2022-08-26T18:48:51.251Z,7.90
2022-08-26T18:51:21.626Z,8.23
2022-08-26T18:53:50.182Z,9.00
2022-08-26T18:56:18.927Z,9.60
2022-08-26T18:58:47.163Z,9.55
2022-08-26T19:01:17.606Z,9.20
2022-08-26T19:03:45.876Z,9.77
2022-08-26T19:06:17.867Z,9.48
2022-08-26T19:08:46.712Z,9.15
2022-08-26T19:11:31.298Z,10.07
2022-08-26T19:14:02.637Z,9.95
2022-08-26T19:16:32.203Z,11.75
2022-08-26T19:19:01.830Z,10.32
2022-08-26T19:21:30.913Z,10.60
2022-08-26T19:24:00.526Z,10.35
2022-08-26T19:26:29.332Z,10.15
2022-08-26T19:28:58.344Z,11.10
2022-08-26T19:31:26.697Z,10.48
2022-08-26T19:33:57.961Z,10.80
2022-08-26T19:36:27.639Z,10.63
2022-08-26T19:38:56.893Z,11.15
2022-08-26T19:41:36.934Z,12.15
2022-08-26T19:44:07.944Z,12.35
2022-08-26T19:46:39.949Z,11.50
2022-08-26T19:49:09.341Z,10.68
2022-08-26T19:51:37.484Z,11.40
2022-08-26T19:54:07.003Z,11.32
2022-08-26T19:56:35.086Z,12.13
2022-08-26T19:59:03.221Z,11.75
2022-08-26T20:01:31.709Z,11.15
2022-08-26T20:04:00.005Z,11.93
2022-08-26T20:06:29.431Z,11.98
2022-08-26T20:08:57.956Z,12.27
2022-08-26T20:11:26.506Z,12.65
2022-08-26T20:13:55.375Z,12.07
2022-08-26T20:16:23.526Z,12.45
2022-08-26T20:19:10.865Z,13.75
2022-08-26T20:21:42.528Z,12.45
2022-08-26T20:24:13.895Z,12.52
2022-08-26T20:26:44.385Z,12.68
2022-08-26T20:29:20.248Z,11.93
2022-08-26T20:31:48.909Z,13.35
2022-08-26T20:34:19.484Z,14.85
2022-08-26T20:36:50.902Z,13.55
2022-08-26T20:39:20.985Z,12.65
2022-08-26T20:41:49.571Z,13.30
2022-08-26T20:44:17.848Z,13.18
2022-08-26T20:46:46.544Z,12.77
2022-08-26T20:49:15.541Z,12.30
2022-08-26T20:51:43.956Z,12.32
2022-08-26T20:54:13.956Z,12.27
2022-08-26T20:56:42.084Z,12.98
2022-08-26T20:59:10.852Z,11.93
2022-08-26T21:01:39.976Z,12.32
2022-08-26T21:04:12.706Z,11.95
2022-08-26T21:06:42.261Z,11.63
2022-08-26T21:09:19.187Z,12.50
2022-08-26T21:11:47.338Z,11.77
2022-08-26T21:14:17.109Z,11.35
2022-08-26T21:16:47.006Z,12.43
2022-08-26T21:19:18.755Z,11.90
2022-08-26T21:21:47.841Z,11.32
2022-08-26T21:24:16.087Z,11.27
2022-08-26T21:26:45.882Z,10.75
2022-08-26T21:29:14.329Z,11.48
2022-08-26T21:31:46.977Z,11.32
2022-08-26T21:34:15.913Z,11.00
2022-08-26T21:36:44.061Z,10.48
2022-08-26T21:39:12.721Z,11.50
2022-08-26T21:41:41.756Z,11.88
2022-08-26T21:44:12.191Z,11.63
2022-08-26T21:46:40.752Z,11.02
2022-08-26T21:49:10.819Z,11.43
2022-08-26T21:51:41.194Z,11.68
2022-08-26T21:54:11.359Z,11.68
2022-08-26T21:56:41.496Z,11.93
2022-08-26T21:59:11.502Z,12.52
2022-08-26T22:01:39.580Z,12.93
2022-08-26T22:04:09.689Z,13.40
2022-08-26T22:06:43.363Z,12.73
2022-08-26T22:09:11.806Z,12.52
2022-08-26T22:11:40.041Z,11.45
2022-08-26T22:14:08.167Z,12.63
2022-08-26T22:16:37.739Z,12.63
2022-08-26T22:19:06.252Z,11.70
2022-08-26T22:21:35.742Z,11.32
2022-08-26T22:24:07.102Z,12.73
2022-08-26T22:26:35.529Z,11.93
2022-08-26T22:29:04.989Z,11.82
2022-08-26T22:31:37.773Z,11.57
2022-08-26T22:34:09.903Z,11.77
2022-08-26T22:36:43.289Z,11.90
2022-08-26T22:39:12.854Z,11.38
2022-08-26T22:41:41.335Z,11.77
2022-08-26T22:44:10.390Z,11.80
2022-08-26T22:46:38.978Z,11.82
2022-08-26T22:49:09.645Z,11.40
2022-08-26T22:51:37.875Z,10.90
2022-08-26T22:54:06.629Z,11.80
2022-08-26T22:56:35.100Z,11.32
2022-08-26T22:59:03.235Z,12.77
2022-08-26T23:01:31.818Z,12.15
2022-08-26T23:03:59.923Z,11.38
2022-08-26T23:06:29.409Z,11.77
2022-08-26T23:08:57.498Z,12.23
2022-08-26T23:11:25.588Z,11.50
2022-08-26T23:13:53.696Z,11.73
2022-08-26T23:16:22.284Z,12.13
2022-08-26T23:18:50.457Z,11.73
2022-08-26T23:21:18.876Z,12.35
2022-08-26T23:23:48.335Z,11.75
2022-08-26T23:26:17.806Z,12.07
2022-08-26T23:28:46.023Z,12.23
2022-08-26T23:31:15.416Z,12.63
2022-08-26T23:34:01.206Z,11.70
2022-08-26T23:36:31.103Z,12.55
2022-08-26T23:39:06.093Z,11.85
2022-08-26T23:41:35.795Z,12.82
2022-08-26T23:44:05.296Z,11.98
2022-08-26T23:46:34.094Z,12.02
2022-08-26T23:49:02.566Z,12.55
2022-08-26T23:51:48.232Z,11.60
2022-08-26T23:54:17.885Z,12.00
2022-08-26T23:56:46.173Z,11.85
2022-08-26T23:59:14.351Z,11.95
